createdAt,value
2022-12-23T00:02:05.647Z,9.40
2022-12-23T00:04:32.614Z,9.40
2022-12-23T00:06:59.331Z,9.40
2022-12-23T00:09:26.094Z,9.40
2022-12-23T00:12:13.086Z,9.40
2022-12-23T00:14:58.591Z,9.40
2022-12-23T00:17:25.416Z,9.40
2022-12-23T00:19:52.282Z,9.40
2022-12-23T00:22:18.995Z,9.40
2022-12-23T00:24:48.001Z,9.50
2022-12-23T00:27:14.649Z,9.50
2022-12-23T00:29:41.667Z,9.50
2022-12-23T00:32:08.456Z,9.50
2022-12-23T00:34:37.630Z,9.50
2022-12-23T00:37:04.331Z,9.50
2022-12-23T00:39:55.122Z,9.50
2022-12-23T00:42:40.885Z,9.50
2022-12-23T00:45:17.268Z,9.50
2022-12-23T00:48:03.708Z,9.50
2022-12-23T00:50:31.461Z,9.60
2022-12-23T00:52:58.327Z,9.50
2022-12-23T00:55:28.002Z,9.60
2022-12-23T00:57:54.832Z,9.50
2022-12-23T01:00:41.663Z,9.60
2022-12-23T01:03:31.342Z,9.60
2022-12-23T01:05:59.846Z,9.50
2022-12-23T01:08:27.098Z,9.60
2022-12-23T01:11:04.263Z,9.60
2022-12-23T01:13:31.092Z,9.60
2022-12-23T01:16:08.298Z,9.60
2022-12-23T01:18:37.873Z,9.60
2022-12-23T01:21:09.272Z,9.70
2022-12-23T01:23:36.597Z,9.70
2022-12-23T01:26:06.499Z,9.70
2022-12-23T01:28:36.382Z,9.70
2022-12-23T01:31:09.545Z,9.70
2022-12-23T01:33:36.459Z,9.70
2022-12-23T01:36:07.662Z,9.80
2022-12-23T01:38:35.232Z,9.70
2022-12-23T01:41:02.105Z,9.70
2022-12-23T01:43:48.529Z,9.80
2022-12-23T01:46:20.351Z,9.80
2022-12-23T01:48:50.993Z,9.80
2022-12-23T01:51:29.921Z,9.80
2022-12-23T01:54:01.166Z,9.80
2022-12-23T01:56:37.345Z,9.80
2022-12-23T01:59:11.698Z,9.80
2022-12-23T02:01:57.212Z,9.80
2022-12-23T02:04:25.579Z,9.80
2022-12-23T02:07:10.780Z,9.90
2022-12-23T02:09:39.760Z,9.80
2022-12-23T02:12:33.988Z,9.90
2022-12-23T02:15:40.870Z,9.90
2022-12-23T02:18:13.469Z,9.90
2022-12-23T02:20:58.224Z,9.90
2022-12-23T02:23:49.634Z,9.90
2022-12-23T02:26:30.886Z,9.90
2022-12-23T02:29:15.753Z,9.90
2022-12-23T02:31:47.615Z,9.90
2022-12-23T02:34:29.472Z,9.90
2022-12-23T02:37:09.210Z,9.90
2022-12-23T02:39:50.328Z,10.00
2022-12-23T02:42:20.481Z,10.00
2022-12-23T02:44:59.759Z,10.00
2022-12-23T02:47:33.455Z,9.90
2022-12-23T02:50:06.216Z,10.00
2022-12-23T02:52:36.126Z,10.00
2022-12-23T02:55:12.339Z,9.90
2022-12-23T02:57:45.501Z,10.00
2022-12-23T03:00:15.176Z,10.70
2022-12-23T03:02:44.480Z,10.00
2022-12-23T03:05:43.037Z,10.00
2022-12-23T03:08:32.746Z,10.70
2022-12-23T03:11:11.405Z,10.00
2022-12-23T03:13:40.461Z,10.00
2022-12-23T03:16:27.267Z,10.00
2022-12-23T03:19:21.889Z,10.00
2022-12-23T03:22:09.337Z,10.00
2022-12-23T03:24:47.418Z,10.00
2022-12-23T03:27:39.152Z,10.00
2022-12-23T03:30:24.480Z,10.00
2022-12-23T03:33:05.137Z,10.00
2022-12-23T03:35:43.886Z,10.10
2022-12-23T03:38:16.470Z,10.00
2022-12-23T03:40:47.029Z,10.10
2022-12-23T03:43:28.998Z,10.10
2022-12-23T03:46:03.481Z,10.10
2022-12-23T03:48:45.238Z,10.10
2022-12-23T03:51:27.383Z,10.00
2022-12-23T03:54:07.853Z,10.10
2022-12-23T03:56:49.792Z,10.10
2022-12-23T03:59:27.614Z,10.10
2022-12-23T04:02:24.570Z,10.00
2022-12-23T04:05:16.365Z,10.00
2022-12-23T04:08:17.610Z,10.00
2022-12-23T04:10:44.536Z,10.00
2022-12-23T04:13:11.379Z,10.00
2022-12-23T04:15:44.206Z,10.00
2022-12-23T04:18:16.374Z,9.90
2022-12-23T04:20:43.068Z,9.90
2022-12-23T04:23:09.847Z,9.90
2022-12-23T04:25:38.986Z,9.90
2022-12-23T04:28:05.718Z,9.90
2022-12-23T04:30:34.641Z,9.90
2022-12-23T04:33:01.829Z,9.90
2022-12-23T04:35:28.735Z,9.90
2022-12-23T04:37:57.549Z,9.90
2022-12-23T04:40:26.424Z,9.90
2022-12-23T04:42:53.193Z,9.90
2022-12-23T04:45:22.345Z,9.90
2022-12-23T04:47:49.009Z,9.90
2022-12-23T04:50:16.694Z,9.90
2022-12-23T04:52:43.764Z,9.90
2022-12-23T04:55:11.140Z,9.90
2022-12-23T04:57:37.864Z,9.90
2022-12-23T05:00:05.500Z,9.90
2022-12-23T05:02:32.301Z,9.90
2022-12-23T05:04:59.051Z,9.90
2022-12-23T05:07:25.754Z,11.70
2022-12-23T05:09:52.391Z,9.90
2022-12-23T05:12:19.191Z,9.90
2022-12-23T05:14:48.236Z,9.90
2022-12-23T05:17:17.080Z,10.00
2022-12-23T05:19:45.928Z,10.00
2022-12-23T05:22:12.609Z,10.00
2022-12-23T05:24:41.747Z,10.00
2022-12-23T05:27:10.585Z,10.00
2022-12-23T05:29:37.486Z,10.00
2022-12-23T05:32:07.480Z,10.00
2022-12-23T05:34:34.231Z,10.00
2022-12-23T05:37:00.876Z,10.00
2022-12-23T05:39:27.519Z,10.00
2022-12-23T05:41:54.197Z,10.00
2022-12-23T05:44:23.357Z,10.00
2022-12-23T05:46:50.077Z,10.10
2022-12-23T05:49:16.842Z,10.00
2022-12-23T05:51:43.600Z,10.00
2022-12-23T05:54:10.279Z,10.10
2022-12-23T05:56:39.192Z,10.10
2022-12-23T05:59:05.833Z,10.10
2022-12-23T06:01:32.540Z,10.10
2022-12-23T06:03:59.338Z,11.10
2022-12-23T06:06:26.249Z,10.00
2022-12-23T06:08:59.192Z,10.10
2022-12-23T06:11:28.810Z,10.00
2022-12-23T06:13:55.496Z,10.00
2022-12-23T06:16:27.144Z,10.20
2022-12-23T06:18:58.897Z,10.10
2022-12-23T06:21:27.710Z,12.70
2022-12-23T06:23:54.344Z,10.10
2022-12-23T06:26:23.622Z,10.10
2022-12-23T06:28:50.341Z,10.10
2022-12-23T06:31:17.055Z,10.10
2022-12-23T06:33:44.124Z,10.10
2022-12-23T06:36:12.986Z,10.00
2022-12-23T06:38:42.181Z,10.10
2022-12-23T06:41:11.387Z,10.10
2022-12-23T06:43:38.120Z,10.10
2022-12-23T06:46:07.081Z,10.00
2022-12-23T06:48:38.259Z,10.10
2022-12-23T06:51:07.774Z,9.90
2022-12-23T06:53:34.518Z,10.00
2022-12-23T06:56:02.796Z,10.00
2022-12-23T06:58:31.839Z,10.00
2022-12-23T07:00:58.608Z,10.00
2022-12-23T07:03:27.618Z,9.90
2022-12-23T07:05:54.344Z,9.90
2022-12-23T07:08:21.185Z,9.80
2022-12-23T07:10:47.832Z,9.90
2022-12-23T07:13:14.541Z,9.90
2022-12-23T07:15:43.569Z,9.90
2022-12-23T07:18:10.244Z,9.90
2022-12-23T07:20:39.460Z,10.50
2022-12-23T07:23:06.205Z,9.90
2022-12-23T07:25:32.875Z,9.90
2022-12-23T07:27:59.608Z,9.90
2022-12-23T07:30:26.406Z,9.90
2022-12-23T07:32:55.716Z,9.90
2022-12-23T07:35:22.434Z,9.90
2022-12-23T07:37:56.004Z,10.00
2022-12-23T07:40:28.168Z,10.00
2022-12-23T07:42:57.386Z,10.10
2022-12-23T07:45:28.810Z,10.10
2022-12-23T07:48:04.564Z,10.00
2022-12-23T07:50:33.379Z,9.90
2022-12-23T07:53:00.164Z,10.00
2022-12-23T07:55:29.299Z,10.00
2022-12-23T07:57:58.410Z,9.90
2022-12-23T08:00:25.172Z,9.90
2022-12-23T08:02:51.901Z,10.00
2022-12-23T08:05:21.054Z,10.00
2022-12-23T08:07:50.120Z,10.10
2022-12-23T08:10:16.954Z,11.40
2022-12-23T08:12:43.734Z,10.10
2022-12-23T08:15:10.616Z,10.10
2022-12-23T08:17:39.500Z,10.10
2022-12-23T08:20:06.821Z,10.20
2022-12-23T08:22:36.062Z,10.20
2022-12-23T08:25:02.841Z,10.20
2022-12-23T08:27:29.521Z,10.20
2022-12-23T08:29:58.722Z,10.20
2022-12-23T08:32:28.690Z,10.20
2022-12-23T08:34:57.757Z,10.30
2022-12-23T08:37:29.752Z,10.30
2022-12-23T08:40:01.101Z,10.30
2022-12-23T08:42:27.815Z,10.30
2022-12-23T08:44:54.465Z,10.30
2022-12-23T08:47:26.144Z,10.40
2022-12-23T08:49:54.980Z,10.40
2022-12-23T08:52:21.723Z,10.50
2022-12-23T08:54:48.548Z,10.60
2022-12-23T08:57:15.549Z,10.60
2022-12-23T08:59:42.254Z,10.60
2022-12-23T09:02:11.596Z,10.70
2022-12-23T09:04:42.933Z,10.70
2022-12-23T09:07:09.595Z,10.70
2022-12-23T09:09:39.978Z,10.70
2022-12-23T09:12:09.558Z,10.70
2022-12-23T09:14:36.375Z,10.70
2022-12-23T09:17:06.215Z,10.70
2022-12-23T09:19:32.970Z,10.70
2022-12-23T09:21:59.642Z,10.70
2022-12-23T09:24:26.433Z,10.70
2022-12-23T09:26:53.398Z,10.70
2022-12-23T09:29:20.178Z,10.70
2022-12-23T09:31:49.171Z,10.80
2022-12-23T09:34:18.095Z,10.70
2022-12-23T09:36:46.283Z,11.30
2022-12-23T09:39:16.861Z,11.00
2022-12-23T09:42:15.805Z,10.90
2022-12-23T09:44:48.277Z,10.90
2022-12-23T09:47:19.612Z,10.90
2022-12-23T09:49:58.859Z,11.20
2022-12-23T09:52:41.356Z,11.00
2022-12-23T09:55:14.063Z,11.10
2022-12-23T09:58:01.748Z,11.10
2022-12-23T10:00:43.199Z,11.20
2022-12-23T10:03:26.025Z,11.20
2022-12-23T10:06:19.940Z,11.40
2022-12-23T10:08:51.276Z,11.40
2022-12-23T10:11:26.724Z,11.40
2022-12-23T10:13:58.733Z,11.40
2022-12-23T10:16:42.803Z,11.40
2022-12-23T10:19:23.783Z,11.50
2022-12-23T10:21:59.463Z,11.90
2022-12-23T10:24:38.411Z,11.60
2022-12-23T10:27:26.313Z,11.60
2022-12-23T10:29:52.956Z,11.70
2022-12-23T10:32:55.852Z,11.70
2022-12-23T10:35:54.032Z,11.70
2022-12-23T10:39:00.008Z,11.80
2022-12-23T10:42:02.648Z,11.90
2022-12-23T10:45:04.123Z,11.90
2022-12-23T10:47:51.641Z,12.00
2022-12-23T10:50:45.878Z,12.00
2022-12-23T10:53:20.336Z,12.10
2022-12-23T10:55:49.387Z,12.00
2022-12-23T10:58:18.345Z,12.10
2022-12-23T11:00:57.587Z,12.10
2022-12-23T11:03:56.528Z,12.10
2022-12-23T11:06:25.629Z,12.10
2022-12-23T11:08:54.824Z,12.20
2022-12-23T11:11:21.579Z,12.20
2022-12-23T11:13:48.377Z,12.20
2022-12-23T11:16:23.388Z,12.30
2022-12-23T11:19:14.895Z,12.30
2022-12-23T11:21:55.398Z,12.40
2022-12-23T11:24:25.918Z,12.30
2022-12-23T11:27:07.621Z,12.40
2022-12-23T11:29:43.677Z,12.50
2022-12-23T11:32:21.218Z,12.40
2022-12-23T11:34:51.170Z,12.40
2022-12-23T11:37:40.966Z,12.50
2022-12-23T11:40:28.894Z,12.50
2022-12-23T11:43:16.505Z,12.50
2022-12-23T11:45:43.213Z,12.50
2022-12-23T11:48:31.066Z,12.50
2022-12-23T11:51:03.163Z,12.60
2022-12-23T11:53:32.669Z,12.60
2022-12-23T11:56:07.455Z,12.60
2022-12-23T11:58:46.451Z,12.70
2022-12-23T12:01:22.199Z,12.70
2022-12-23T12:03:56.641Z,12.70
2022-12-23T12:06:23.592Z,12.70
2022-12-23T12:08:53.195Z,12.80
2022-12-23T12:11:26.790Z,12.70
2022-12-23T12:13:59.866Z,12.70
2022-12-23T12:16:51.720Z,12.70
2022-12-23T12:19:31.724Z,12.70
2022-12-23T12:22:06.001Z,12.80
2022-12-23T12:24:40.239Z,12.80
2022-12-23T12:27:13.267Z,12.80
2022-12-23T12:29:52.425Z,12.90
2022-12-23T12:32:53.243Z,13.00
2022-12-23T12:35:19.906Z,13.00
2022-12-23T12:37:53.610Z,13.10
2022-12-23T12:40:41.913Z,13.00
2022-12-23T12:43:27.293Z,13.00
2022-12-23T12:46:15.599Z,13.00
2022-12-23T12:48:50.899Z,13.00
2022-12-23T12:51:26.473Z,13.00
2022-12-23T12:54:04.960Z,13.00
2022-12-23T12:56:42.230Z,13.00
2022-12-23T12:59:33.250Z,13.00
2022-12-23T13:02:18.596Z,13.00
2022-12-23T13:05:12.432Z,12.90
2022-12-23T13:08:08.655Z,12.90
2022-12-23T13:11:00.387Z,13.00
2022-12-23T13:14:10.842Z,12.90
2022-12-23T13:16:56.362Z,12.90
2022-12-23T13:19:41.072Z,12.90
2022-12-23T13:22:45.387Z,12.90
2022-12-23T13:25:22.415Z,12.90
2022-12-23T13:27:55.213Z,12.90
2022-12-23T13:30:23.859Z,12.90
2022-12-23T13:32:53.580Z,12.90
2022-12-23T13:35:34.698Z,12.80
2022-12-23T13:38:11.475Z,12.70
2022-12-23T13:41:06.483Z,12.70
2022-12-23T13:44:00.126Z,12.70
2022-12-23T13:46:45.817Z,12.60
2022-12-23T13:49:27.934Z,12.60
2022-12-23T13:52:06.003Z,12.60
2022-12-23T13:54:46.989Z,12.60
2022-12-23T13:57:32.287Z,12.60
2022-12-23T14:00:05.808Z,12.60
2022-12-23T14:02:40.191Z,12.60
2022-12-23T14:05:31.453Z,12.50
2022-12-23T14:08:00.965Z,12.50
2022-12-23T14:10:28.552Z,12.50
2022-12-23T14:13:02.512Z,12.40
2022-12-23T14:15:53.489Z,12.40
2022-12-23T14:18:38.473Z,12.40
2022-12-23T14:21:25.399Z,12.40
2022-12-23T14:24:10.166Z,12.40
2022-12-23T14:27:16.729Z,12.40
2022-12-23T14:30:14.396Z,12.30
2022-12-23T14:32:46.283Z,12.30
2022-12-23T14:35:42.626Z,12.30
2022-12-23T14:38:15.629Z,12.30
2022-12-23T14:40:42.278Z,12.30
2022-12-23T14:43:33.199Z,12.30
2022-12-23T14:46:04.749Z,12.30
2022-12-23T14:48:34.505Z,12.30
2022-12-23T14:51:32.758Z,12.30
2022-12-23T14:53:59.416Z,12.30
2022-12-23T14:56:43.336Z,12.30
2022-12-23T14:59:26.993Z,12.30
2022-12-23T15:01:57.755Z,12.20
2022-12-23T15:04:30.426Z,12.20
2022-12-23T15:07:17.168Z,12.20
2022-12-23T15:10:00.481Z,12.20
2022-12-23T15:12:35.878Z,12.20
2022-12-23T15:15:15.314Z,12.20
2022-12-23T15:17:44.474Z,12.10
2022-12-23T15:20:11.251Z,12.20
2022-12-23T15:22:39.516Z,12.10
2022-12-23T15:25:20.977Z,12.10
2022-12-23T15:27:48.953Z,12.10
2022-12-23T15:30:19.098Z,12.00
2022-12-23T15:32:48.365Z,12.10
2022-12-23T15:35:23.329Z,12.10
2022-12-23T15:37:51.584Z,12.00
2022-12-23T15:40:27.704Z,12.10
2022-12-23T15:42:55.233Z,12.10
2022-12-23T15:45:35.601Z,12.00
2022-12-23T15:48:04.364Z,12.00
2022-12-23T15:50:41.758Z,12.00
2022-12-23T15:53:10.141Z,12.00
2022-12-23T15:55:39.368Z,12.00
2022-12-23T15:58:16.665Z,12.00
2022-12-23T16:00:57.395Z,12.00
2022-12-23T16:03:34.492Z,12.00
2022-12-23T16:06:19.154Z,12.00
2022-12-23T16:08:55.086Z,12.00
2022-12-23T16:11:36.284Z,11.90
2022-12-23T16:14:24.769Z,12.00
2022-12-23T16:16:54.239Z,11.90
2022-12-23T16:20:17.589Z,11.90
2022-12-23T16:22:49.093Z,11.90
2022-12-23T16:25:20.927Z,11.90
2022-12-23T16:27:54.171Z,11.90
2022-12-23T16:30:25.110Z,11.90
2022-12-23T16:32:55.091Z,11.90
2022-12-23T16:35:40.660Z,11.90
2022-12-23T16:38:24.813Z,11.90
2022-12-23T16:40:56.580Z,11.90
2022-12-23T16:43:25.721Z,12.00
2022-12-23T16:45:55.385Z,12.00
2022-12-23T16:48:39.205Z,11.90
2022-12-23T16:51:11.707Z,11.90
2022-12-23T16:53:38.525Z,11.90
2022-12-23T16:56:16.797Z,11.90
2022-12-23T16:58:46.780Z,11.90
2022-12-23T17:01:28.301Z,11.90
2022-12-23T17:03:56.245Z,11.90
2022-12-23T17:06:25.926Z,12.00
2022-12-23T17:08:53.238Z,12.00
2022-12-23T17:11:25.210Z,12.00
2022-12-23T17:14:01.393Z,12.00
2022-12-23T17:16:31.103Z,12.00
2022-12-23T17:18:58.618Z,12.00
2022-12-23T17:21:32.421Z,11.90
2022-12-23T17:24:26.826Z,11.90
2022-12-23T17:26:54.345Z,11.90
2022-12-23T17:29:23.269Z,11.90
2022-12-23T17:31:50.608Z,11.90
2022-12-23T17:34:25.459Z,11.90
2022-12-23T17:36:52.791Z,11.90
2022-12-23T17:39:20.884Z,11.90
2022-12-23T17:41:47.958Z,11.90
2022-12-23T17:44:17.327Z,11.90
2022-12-23T17:46:48.085Z,11.90
2022-12-23T17:49:17.486Z,11.90
2022-12-23T17:51:44.215Z,11.90
2022-12-23T17:54:24.321Z,11.90
2022-12-23T17:56:53.835Z,11.90
2022-12-23T17:59:21.536Z,11.90
2022-12-23T18:01:48.382Z,11.90
2022-12-23T18:04:15.246Z,11.90
2022-12-23T18:06:42.188Z,11.90
2022-12-23T18:09:11.158Z,11.90
2022-12-23T18:11:43.972Z,11.90
2022-12-23T18:14:19.988Z,11.90
2022-12-23T18:16:48.913Z,11.90
2022-12-23T18:19:20.378Z,11.90
2022-12-23T18:21:49.924Z,11.90
2022-12-23T18:24:17.082Z,11.90
2022-12-23T18:26:44.167Z,11.90
2022-12-23T18:29:10.866Z,11.90
2022-12-23T18:31:50.525Z,11.90
2022-12-23T18:34:20.496Z,11.80
2022-12-23T18:36:48.283Z,11.80
2022-12-23T18:39:17.784Z,11.80
2022-12-23T18:41:44.542Z,11.80
2022-12-23T18:44:24.094Z,11.80
2022-12-23T18:46:51.000Z,11.80
2022-12-23T18:49:19.990Z,11.80
2022-12-23T18:51:46.875Z,11.80
2022-12-23T18:54:15.469Z,11.80
2022-12-23T18:56:45.202Z,11.80
2022-12-23T18:59:27.519Z,11.80
2022-12-23T19:01:56.788Z,11.80
2022-12-23T19:04:23.612Z,11.70
2022-12-23T19:06:50.304Z,11.80
2022-12-23T19:09:22.799Z,11.80
2022-12-23T19:11:55.329Z,11.80
2022-12-23T19:14:24.714Z,11.80
2022-12-23T19:16:52.608Z,11.80
2022-12-23T19:19:20.170Z,11.80
2022-12-23T19:21:51.566Z,11.80
2022-12-23T19:24:20.461Z,11.70
2022-12-23T19:26:49.473Z,11.80
2022-12-23T19:29:18.329Z,11.60
2022-12-23T19:31:45.006Z,11.70
2022-12-23T19:34:15.492Z,11.70
2022-12-23T19:36:47.998Z,11.70
2022-12-23T19:39:17.234Z,11.70
2022-12-23T19:41:44.526Z,11.70
2022-12-23T19:44:11.242Z,11.70
2022-12-23T19:46:38.158Z,11.70
2022-12-23T19:49:04.876Z,11.60
2022-12-23T19:51:34.060Z,11.60
2022-12-23T19:54:00.769Z,11.60
2022-12-23T19:56:29.277Z,11.60
2022-12-23T19:58:56.063Z,11.50
2022-12-23T20:01:27.720Z,11.50
2022-12-23T20:03:55.959Z,11.50
2022-12-23T20:06:28.944Z,11.50
2022-12-23T20:09:00.574Z,11.50
2022-12-23T20:11:30.546Z,11.40
2022-12-23T20:13:58.327Z,11.40
2022-12-23T20:16:25.979Z,11.40
2022-12-23T20:18:53.388Z,11.40
2022-12-23T20:21:22.267Z,11.30
2022-12-23T20:23:49.536Z,11.30
2022-12-23T20:26:17.875Z,12.10
2022-12-23T20:28:45.038Z,11.30
2022-12-23T20:31:11.680Z,11.30
2022-12-23T20:33:39.687Z,11.30
2022-12-23T20:36:13.098Z,11.20
2022-12-23T20:38:41.581Z,11.20
2022-12-23T20:41:10.049Z,11.50
2022-12-23T20:43:39.140Z,11.20
2022-12-23T20:46:07.979Z,11.20
2022-12-23T20:48:35.003Z,11.20
2022-12-23T20:51:16.144Z,11.10
2022-12-23T20:53:45.532Z,11.10
2022-12-23T20:56:18.170Z,11.10
2022-12-23T20:59:03.777Z,11.10
2022-12-23T21:01:40.771Z,11.10
2022-12-23T21:04:11.438Z,11.10
2022-12-23T21:06:38.912Z,11.10
2022-12-23T21:09:07.805Z,11.00
2022-12-23T21:11:38.382Z,11.00
2022-12-23T21:14:07.200Z,11.00
2022-12-23T21:16:36.576Z,11.00
2022-12-23T21:19:06.625Z,10.90
2022-12-23T21:21:33.777Z,10.90
2022-12-23T21:24:06.594Z,11.00
2022-12-23T21:26:34.638Z,10.90
2022-12-23T21:29:03.742Z,10.90
2022-12-23T21:31:32.183Z,11.10
2022-12-23T21:33:59.254Z,10.80
2022-12-23T21:36:31.562Z,10.80
2022-12-23T21:38:59.295Z,10.80
2022-12-23T21:41:30.532Z,10.70
2022-12-23T21:43:58.198Z,10.70
2022-12-23T21:46:28.326Z,10.70
2022-12-23T21:48:59.141Z,10.60
2022-12-23T21:51:35.006Z,10.70
2022-12-23T21:54:05.589Z,10.60
2022-12-23T21:56:32.536Z,10.50
2022-12-23T21:59:01.329Z,10.60
2022-12-23T22:01:28.633Z,10.60
2022-12-23T22:03:58.751Z,10.60
2022-12-23T22:06:33.155Z,10.60
2022-12-23T22:09:00.194Z,10.50
2022-12-23T22:11:29.558Z,10.50
2022-12-23T22:14:02.029Z,10.40
2022-12-23T22:16:30.440Z,10.40
2022-12-23T22:18:58.994Z,10.40
2022-12-23T22:21:27.712Z,10.60
2022-12-23T22:23:54.915Z,10.60
2022-12-23T22:26:27.178Z,10.60
2022-12-23T22:29:01.169Z,10.60
2022-12-23T22:31:44.312Z,10.70
2022-12-23T22:34:21.343Z,10.70
2022-12-23T22:36:49.129Z,10.70
2022-12-23T22:39:22.163Z,10.60
2022-12-23T22:41:52.751Z,10.50
2022-12-23T22:44:22.455Z,10.50
2022-12-23T22:46:49.544Z,10.40
2022-12-23T22:49:20.822Z,10.50
2022-12-23T22:51:52.202Z,10.40
2022-12-23T22:54:18.988Z,10.40
2022-12-23T22:56:45.987Z,10.40
2022-12-23T22:59:21.781Z,10.40
2022-12-23T23:01:49.833Z,10.40
2022-12-23T23:04:16.626Z,10.30
2022-12-23T23:06:43.653Z,10.30
2022-12-23T23:09:14.022Z,10.30
2022-12-23T23:11:41.097Z,10.30
2022-12-23T23:14:08.212Z,10.20
2022-12-23T23:16:35.217Z,10.10
2022-12-23T23:19:03.433Z,10.20
2022-12-23T23:21:30.464Z,10.20
2022-12-23T23:23:57.130Z,10.20
2022-12-23T23:26:27.554Z,10.10
2022-12-23T23:28:57.215Z,10.00
2022-12-23T23:31:42.314Z,10.10
2022-12-23T23:34:09.935Z,10.00
2022-12-23T23:36:38.954Z,9.90
2022-12-23T23:39:08.213Z,9.90
2022-12-23T23:41:37.140Z,9.90
2022-12-23T23:44:04.495Z,9.90
2022-12-23T23:46:31.893Z,9.80
2022-12-23T23:48:58.782Z,9.80
2022-12-23T23:51:28.236Z,9.70
2022-12-23T23:53:55.037Z,9.70
2022-12-23T23:56:25.896Z,9.70
2022-12-23T23:58:53.878Z,9.60
